This is the latest recevied weather packets stored in our database for station/object DL3MEB-6. If no packets are shown the sender has not sent any weather packets the latest 10 day(s).
| Time | Temp. | Humidity | Pressure | Rain* | Wind** | Luminosity | Snow |
|---|---|---|---|---|---|---|---|
| 1788014385 | 26.67° C | 36% | 1014.4 hPa | 0 mm | - | - | - |
| 1788013480 | 26.67° C | 36% | 1014.7 hPa | 0 mm | - | - | - |
| 1788012572 | 26.11° C | 37% | 1014.7 hPa | 0 mm | - | - | - |
| 1788011667 | 26.67° C | 36% | 1014.9 hPa | 0 mm | - | - | - |
| 1788010766 | 26.11° C | 38% | 1015.2 hPa | 0 mm | - | - | - |
| 1788009866 | 26.11° C | 37% | 1015.3 hPa | 0 mm | - | - | - |
| 1788008951 | 25.56° C | 42% | 1015.4 hPa | 0 mm | - | - | - |
| 1788006243 | 24.44° C | 47% | 1015.7 hPa | 0 mm | - | - | - |
| 1788005338 | 24.44° C | 44% | 1015.8 hPa | 0 mm | - | - | - |
| 1788004424 | 24.44° C | 47% | 1015.9 hPa | 0 mm | - | - | - |
| 1788003516 | 23.33° C | 50% | 1016.1 hPa | 0 mm | - | - | - |
| 1788001695 | 23.33° C | 50% | 1016.4 hPa | 0 mm | - | - | - |
| 1788000783 | 22.78° C | 52% | 1016.5 hPa | 0 mm | - | - | - |
| 1787999877 | 22.22° C | 51% | 1016.7 hPa | 0 mm | - | - | - |
| 1787998970 | 21.67° C | 54% | 1016.8 hPa | 0 mm | - | - | - |
| 1787998063 | 21.11° C | 57% | 1016.9 hPa | 0 mm | - | - | - |
| 1787997156 | 20.56° C | 61% | 1017 hPa | 0 mm | - | - | - |
| 1787996245 | 20° C | 62% | 1017.2 hPa | 0 mm | - | - | - |
| 1787994441 | 19.44° C | 65% | 1017.5 hPa | 0 mm | - | - | - |
| 1787993537 | 18.89° C | 69% | 1017.5 hPa | 0 mm | - | - | - |
| 1787991722 | 18.33° C | 75% | 1017.4 hPa | 0 mm | - | - | - |
| 1787990821 | 17.78° C | 77% | 1017.3 hPa | 0 mm | - | - | - |
| 1787989918 | 17.22° C | 80% | 1017.4 hPa | 0 mm | - | - | - |
| 1787989008 | 16.67° C | 84% | 1017.4 hPa | 0 mm | - | - | - |
| 1787988104 | 16.11° C | 88% | 1017.5 hPa | 0 mm | - | - | - |
* Rain latest hour (hover to see other rain measurements)
** Current wind speed in m/s (hover to see current wind gust speed)